Time;durP1;ratioP1;P1;durP2;ratioP2;P2;SDS_P1;SDS_P2;PMS_P1;PMS_P2;Temp;Humidity;BMP_temperature;BMP_pressure;BME280_temperature;BME280_humidity;BME280_pressure;Samples;Min_cycle;Max_cycle;Signal;HPM_P1;HPM_P2
2024/02/06 00:00:47;;;;;;;14.30;11.27;;;;;;;;;;5054611;28;20021;-55
2024/02/06 00:03:13;;;;;;;18.25;12.95;;;;;;;;;;5054574;28;20108;-56
2024/02/06 00:05:39;;;;;;;16.40;12.07;;;;;;;;;;5055025;28;20447;-56
2024/02/06 00:08:05;;;;;;;18.10;11.55;;;;;;;;;;5054833;28;20029;-56
2024/02/06 00:10:31;;;;;;;16.02;12.38;;;;;;;;;;5054938;28;20443;-56
2024/02/06 00:12:57;;;;;;;15.35;11.98;;;;;;;;;;5054325;28;20074;-56
2024/02/06 00:15:23;;;;;;;15.32;12.38;;;;;;;;;;5054533;28;20075;-54
2024/02/06 00:17:49;;;;;;;12.48;10.65;;;;;;;;;;5054411;28;20037;-52
2024/02/06 00:20:19;;;;;;;13.52;11.73;;;;;;;;;;5054214;28;20099;-56
2024/02/06 00:22:45;;;;;;;13.45;11.25;;;;;;;;;;5054562;28;20095;-53
2024/02/06 00:25:11;;;;;;;17.52;11.90;;;;;;;;;;5054989;28;20028;-54
2024/02/06 00:27:37;;;;;;;13.88;10.75;;;;;;;;;;5054469;28;20530;-56
2024/02/06 00:30:03;;;;;;;15.77;11.63;;;;;;;;;;5054112;28;20032;-54
2024/02/06 00:32:29;;;;;;;14.07;12.48;;;;;;;;;;5054053;28;20167;-54
2024/02/06 00:34:59;;;;;;;16.52;12.30;;;;;;;;;;5053714;28;20107;-56
2024/02/06 00:37:25;;;;;;;12.57;11.07;;;;;;;;;;5054563;28;20037;-53
2024/02/06 00:39:51;;;;;;;13.10;11.77;;;;;;;;;;5054428;28;20032;-55
2024/02/06 00:42:17;;;;;;;15.55;11.32;;;;;;;;;;5054161;28;20040;-59
2024/02/06 00:44:43;;;;;;;16.90;12.18;;;;;;;;;;5053364;28;20479;-56
2024/02/06 00:47:09;;;;;;;16.42;12.32;;;;;;;;;;5053773;28;20071;-54
2024/02/06 00:49:36;;;;;;;20.35;11.80;;;;;;;;;;5054470;28;20447;-55
2024/02/06 00:52:02;;;;;;;16.70;13.35;;;;;;;;;;5054107;28;20078;-55
2024/02/06 00:54:28;;;;;;;13.98;12.05;;;;;;;;;;5053808;28;20021;-55
2024/02/06 00:56:53;;;;;;;13.90;12.10;;;;;;;;;;5053853;28;20074;-53
2024/02/06 00:59:19;;;;;;;16.70;10.45;;;;;;;;;;5053654;28;20025;-54
2024/02/06 01:01:47;;;;;;;14.57;12.10;;;;;;;;;;5054422;28;20029;-55
2024/02/06 01:04:13;;;;;;;16.58;12.70;;;;;;;;;;5053634;28;20032;-50
2024/02/06 01:06:39;;;;;;;12.98;11.15;;;;;;;;;;5053826;28;20150;-54
2024/02/06 01:09:05;;;;;;;14.10;10.65;;;;;;;;;;5054124;28;20135;-54
2024/02/06 01:11:31;;;;;;;14.80;10.70;;;;;;;;;;5053816;28;20538;-54
2024/02/06 01:13:57;;;;;;;12.82;11.13;;;;;;;;;;5053484;28;20021;-54
2024/02/06 01:16:23;;;;;;;13.57;11.52;;;;;;;;;;5053576;28;20059;-53
2024/02/06 01:18:48;;;;;;;13.43;10.63;;;;;;;;;;5053440;28;20546;-53
2024/02/06 01:21:15;;;;;;;11.68;10.38;;;;;;;;;;5053806;28;20096;-55
2024/02/06 01:23:41;;;;;;;14.80;10.05;;;;;;;;;;5053405;28;20021;-56
2024/02/06 01:26:10;;;;;;;17.67;10.68;;;;;;;;;;5053957;28;20025;-54
2024/02/06 01:28:36;;;;;;;16.65;10.35;;;;;;;;;;5053971;28;20032;-55
2024/02/06 01:31:02;;;;;;;10.40;9.00;;;;;;;;;;5053356;28;20051;-54
2024/02/06 01:33:28;;;;;;;22.02;10.93;;;;;;;;;;5053892;28;20311;-57
2024/02/06 01:35:54;;;;;;;16.30;9.93;;;;;;;;;;5053358;28;20108;-56
2024/02/06 01:38:20;;;;;;;16.63;10.10;;;;;;;;;;5053596;28;20059;-56
2024/02/06 01:40:46;;;;;;;15.43;10.43;;;;;;;;;;5053762;28;20065;-54
2024/02/06 01:43:13;;;;;;;14.43;9.35;;;;;;;;;;5052952;28;20021;-54
2024/02/06 01:45:39;;;;;;;13.85;10.23;;;;;;;;;;5053212;28;20048;-54
2024/02/06 01:48:05;;;;;;;12.18;9.32;;;;;;;;;;5053792;28;20025;-54
2024/02/06 01:50:31;;;;;;;14.38;9.60;;;;;;;;;;5053977;28;20103;-51
2024/02/06 01:52:57;;;;;;;14.45;9.65;;;;;;;;;;5053463;28;20025;-52
2024/02/06 01:55:23;;;;;;;13.32;9.63;;;;;;;;;;5054339;28;20398;-55
2024/02/06 01:57:49;;;;;;;11.13;9.27;;;;;;;;;;5057452;28;20025;-55
2024/02/06 02:00:16;;;;;;;12.40;9.70;;;;;;;;;;5056924;28;20021;-52
2024/02/06 02:02:42;;;;;;;11.00;9.80;;;;;;;;;;5057311;28;20025;-56
2024/02/06 02:05:08;;;;;;;13.13;8.43;;;;;;;;;;5056586;28;20124;-55
2024/02/06 02:07:35;;;;;;;13.85;9.15;;;;;;;;;;5056979;28;20031;-56
2024/02/06 02:10:01;;;;;;;11.50;9.25;;;;;;;;;;5056737;28;20075;-54
2024/02/06 02:12:27;;;;;;;10.05;8.65;;;;;;;;;;5056651;28;20021;-54
2024/02/06 02:14:53;;;;;;;13.10;9.35;;;;;;;;;;5056633;28;20028;-55
2024/02/06 02:17:19;;;;;;;12.70;9.85;;;;;;;;;;5056408;28;20033;-55
2024/02/06 02:19:45;;;;;;;15.43;8.88;;;;;;;;;;5057078;28;20363;-55
2024/02/06 02:22:11;;;;;;;9.25;8.27;;;;;;;;;;5056454;28;20462;-56
2024/02/06 02:24:37;;;;;;;8.93;7.78;;;;;;;;;;5057283;28;20082;-56
2024/02/06 02:27:03;;;;;;;11.98;9.18;;;;;;;;;;5056417;28;20056;-55
2024/02/06 02:29:30;;;;;;;15.15;9.38;;;;;;;;;;5057149;28;20025;-54
2024/02/06 02:31:57;;;;;;;14.02;8.20;;;;;;;;;;5056037;28;20025;-52
2024/02/06 02:34:23;;;;;;;11.20;8.73;;;;;;;;;;5056222;28;20067;-56
2024/02/06 02:36:49;;;;;;;12.65;8.70;;;;;;;;;;5056683;28;20490;-55
2024/02/06 02:39:15;;;;;;;10.43;8.07;;;;;;;;;;5056756;28;20025;-54
2024/02/06 02:41:41;;;;;;;12.00;10.05;;;;;;;;;;5056179;28;20108;-56
2024/02/06 02:44:06;;;;;;;13.27;8.75;;;;;;;;;;5056119;28;20133;-55
2024/02/06 02:46:33;;;;;;;12.02;8.93;;;;;;;;;;5056022;28;20159;-55
2024/02/06 02:48:59;;;;;;;11.77;8.90;;;;;;;;;;5056557;28;20053;-56
2024/02/06 02:51:25;;;;;;;15.52;8.98;;;;;;;;;;5055948;28;20078;-55
2024/02/06 02:53:50;;;;;;;12.38;8.90;;;;;;;;;;5056441;28;20051;-54
2024/02/06 02:56:17;;;;;;;12.70;9.43;;;;;;;;;;5055958;28;20049;-55
2024/02/06 02:58:43;;;;;;;14.40;9.25;;;;;;;;;;5055823;28;20079;-53
2024/02/06 03:01:09;;;;;;;13.43;9.07;;;;;;;;;;5055548;28;20425;-56
2024/02/06 03:03:35;;;;;;;10.38;8.43;;;;;;;;;;5055930;28;20112;-56
2024/02/06 03:06:01;;;;;;;10.77;8.15;;;;;;;;;;5055188;28;20116;-55
2024/02/06 03:08:27;;;;;;;15.30;8.93;;;;;;;;;;5056211;28;20064;-56
2024/02/06 03:10:53;;;;;;;9.68;7.68;;;;;;;;;;5055590;28;20021;-55
2024/02/06 03:13:19;;;;;;;9.20;7.47;;;;;;;;;;5056278;28;20029;-52
2024/02/06 03:15:45;;;;;;;12.52;7.80;;;;;;;;;;5055309;28;20021;-55
2024/02/06 03:18:11;;;;;;;16.65;8.32;;;;;;;;;;5055579;28;20488;-54
2024/02/06 03:20:37;;;;;;;13.05;8.10;;;;;;;;;;5055879;28;20063;-55
2024/02/06 03:23:04;;;;;;;14.52;8.52;;;;;;;;;;5055883;28;20394;-56
2024/02/06 03:25:30;;;;;;;12.50;8.23;;;;;;;;;;5055293;28;20035;-56
2024/02/06 03:27:56;;;;;;;13.65;7.88;;;;;;;;;;5056134;28;20029;-54
2024/02/06 03:30:23;;;;;;;11.02;7.40;;;;;;;;;;5055469;28;20025;-56
2024/02/06 03:32:49;;;;;;;12.63;8.10;;;;;;;;;;5055126;28;20395;-53
2024/02/06 03:35:15;;;;;;;11.82;7.57;;;;;;;;;;5055635;28;20029;-55
2024/02/06 03:37:41;;;;;;;9.50;7.40;;;;;;;;;;5054981;28;20534;-54
2024/02/06 03:40:08;;;;;;;10.27;8.63;;;;;;;;;;5055279;28;20119;-55
2024/02/06 03:42:35;;;;;;;11.60;8.23;;;;;;;;;;5055447;28;20078;-51
2024/02/06 03:45:00;;;;;;;13.82;8.10;;;;;;;;;;5054970;28;20348;-55
2024/02/06 03:47:27;;;;;;;9.60;7.25;;;;;;;;;;5055422;28;20087;-52
2024/02/06 03:49:52;;;;;;;14.75;8.73;;;;;;;;;;5055678;28;20086;-56
2024/02/06 03:52:18;;;;;;;10.30;7.38;;;;;;;;;;5055104;28;20036;-56
2024/02/06 03:54:45;;;;;;;11.95;7.53;;;;;;;;;;5054691;28;20029;-53
2024/02/06 03:57:11;;;;;;;12.95;8.23;;;;;;;;;;5054195;28;20053;-56
2024/02/06 03:59:37;;;;;;;15.48;7.78;;;;;;;;;;5055477;28;20447;-52
2024/02/06 04:02:03;;;;;;;12.82;8.77;;;;;;;;;;5054833;28;20028;-56
2024/02/06 04:04:29;;;;;;;15.32;8.63;;;;;;;;;;5055333;28;20031;-56
2024/02/06 04:06:55;;;;;;;13.38;8.88;;;;;;;;;;5055125;28;20029;-55
2024/02/06 04:09:21;;;;;;;10.13;8.13;;;;;;;;;;5055354;28;20029;-51
2024/02/06 04:11:47;;;;;;;14.00;8.10;;;;;;;;;;5054205;28;20360;-52
2024/02/06 04:14:13;;;;;;;9.52;7.43;;;;;;;;;;5054619;28;20039;-54
2024/02/06 04:16:39;;;;;;;17.25;9.45;;;;;;;;;;5054451;28;20044;-56
2024/02/06 04:19:05;;;;;;;12.52;8.35;;;;;;;;;;5054365;28;20027;-56
2024/02/06 04:21:31;;;;;;;9.80;7.13;;;;;;;;;;5054499;28;20051;-57
2024/02/06 04:23:57;;;;;;;12.80;9.40;;;;;;;;;;5054735;28;20494;-56
2024/02/06 04:26:23;;;;;;;15.70;9.20;;;;;;;;;;5053753;28;20021;-56
2024/02/06 04:28:48;;;;;;;10.07;7.60;;;;;;;;;;5054653;28;20029;-55
2024/02/06 04:31:14;;;;;;;13.27;8.95;;;;;;;;;;5053803;28;20025;-53
2024/02/06 04:33:41;;;;;;;10.00;8.75;;;;;;;;;;5054824;28;20358;-50
2024/02/06 04:36:07;;;;;;;11.82;7.95;;;;;;;;;;5053532;28;20467;-54
2024/02/06 04:38:33;;;;;;;15.15;9.07;;;;;;;;;;5054007;28;20235;-52
2024/02/06 04:40:59;;;;;;;10.02;9.02;;;;;;;;;;5053922;28;20127;-54
2024/02/06 04:43:25;;;;;;;17.02;9.85;;;;;;;;;;5054406;28;20053;-52
2024/02/06 04:45:51;;;;;;;12.38;9.15;;;;;;;;;;5054190;28;20477;-50
2024/02/06 04:48:17;;;;;;;14.10;9.48;;;;;;;;;;5054112;28;20029;-56
2024/02/06 04:50:43;;;;;;;15.93;9.88;;;;;;;;;;5054286;28;20025;-54
2024/02/06 04:53:08;;;;;;;14.38;10.90;;;;;;;;;;5053708;28;20423;-51
2024/02/06 04:55:34;;;;;;;12.05;9.70;;;;;;;;;;5053202;28;20080;-55
2024/02/06 04:58:01;;;;;;;16.48;11.43;;;;;;;;;;5054159;28;20090;-54
2024/02/06 05:00:26;;;;;;;16.55;11.38;;;;;;;;;;5054440;28;20075;-53
2024/02/06 05:02:52;;;;;;;14.07;11.15;;;;;;;;;;5054124;28;20312;-53
2024/02/06 05:05:18;;;;;;;15.63;10.80;;;;;;;;;;5053788;28;20029;-54
2024/02/06 05:07:44;;;;;;;12.05;10.23;;;;;;;;;;5054247;28;20025;-56
2024/02/06 05:10:10;;;;;;;14.15;10.07;;;;;;;;;;5053663;28;20025;-55
2024/02/06 05:12:37;;;;;;;14.98;10.68;;;;;;;;;;5053638;28;20482;-54
2024/02/06 05:15:03;;;;;;;13.80;10.70;;;;;;;;;;5053606;28;20367;-55
2024/02/06 05:17:29;;;;;;;16.38;10.38;;;;;;;;;;5053414;28;20141;-54
2024/02/06 05:19:56;;;;;;;16.30;10.95;;;;;;;;;;5054335;28;20457;-55
2024/02/06 05:22:22;;;;;;;23.48;13.13;;;;;;;;;;5053702;28;20477;-56
2024/02/06 05:24:48;;;;;;;19.77;10.35;;;;;;;;;;5053670;28;20029;-55
2024/02/06 05:27:14;;;;;;;14.60;11.50;;;;;;;;;;5053435;28;20064;-53
2024/02/06 05:29:41;;;;;;;14.63;12.02;;;;;;;;;;5056035;28;20029;-53
2024/02/06 05:32:07;;;;;;;14.55;12.43;;;;;;;;;;5057556;28;20487;-54
2024/02/06 05:34:33;;;;;;;13.95;11.27;;;;;;;;;;5057380;28;20056;-53
2024/02/06 05:36:59;;;;;;;11.90;10.73;;;;;;;;;;5057316;28;20040;-56
2024/02/06 05:39:25;;;;;;;16.25;12.00;;;;;;;;;;5057670;28;20039;-50
2024/02/06 05:41:51;;;;;;;20.33;12.23;;;;;;;;;;5056958;28;20108;-52
2024/02/06 05:44:18;;;;;;;15.90;11.98;;;;;;;;;;5057498;28;20112;-53
2024/02/06 05:46:44;;;;;;;15.35;12.05;;;;;;;;;;5057081;28;20119;-56
2024/02/06 05:49:10;;;;;;;11.25;9.55;;;;;;;;;;5057220;28;20059;-54
2024/02/06 05:51:36;;;;;;;14.20;11.90;;;;;;;;;;5057045;28;20021;-56
2024/02/06 05:54:01;;;;;;;11.82;9.68;;;;;;;;;;5057061;28;20027;-53
2024/02/06 05:56:27;;;;;;;17.30;11.73;;;;;;;;;;5057089;28;20128;-54
2024/02/06 05:58:53;;;;;;;13.18;10.95;;;;;;;;;;5057542;28;20099;-53
2024/02/06 06:01:19;;;;;;;13.32;10.13;;;;;;;;;;5056954;28;20025;-54
2024/02/06 06:03:46;;;;;;;14.77;10.32;;;;;;;;;;5057501;28;20366;-54
2024/02/06 06:06:12;;;;;;;16.58;9.48;;;;;;;;;;5056538;28;20025;-56
2024/02/06 06:08:39;;;;;;;12.98;9.85;;;;;;;;;;5056669;28;20155;-53
2024/02/06 06:11:04;;;;;;;14.70;11.38;;;;;;;;;;5057197;28;20086;-56
2024/02/06 06:13:33;;;;;;;12.73;10.60;;;;;;;;;;5056874;28;20020;-55
2024/02/06 06:15:59;;;;;;;13.73;9.38;;;;;;;;;;5056539;28;20071;-56
2024/02/06 06:18:25;;;;;;;11.32;9.52;;;;;;;;;;5056455;28;20064;-56
2024/02/06 06:20:50;;;;;;;15.50;9.75;;;;;;;;;;5057042;28;20025;-57
2024/02/06 06:23:16;;;;;;;13.60;9.07;;;;;;;;;;5056610;28;20025;-56
2024/02/06 06:25:42;;;;;;;10.93;8.30;;;;;;;;;;5056760;28;20074;-53
2024/02/06 06:28:08;;;;;;;12.85;9.68;;;;;;;;;;5056620;28;20051;-57
2024/02/06 06:30:34;;;;;;;13.10;9.38;;;;;;;;;;5056709;28;20471;-55
2024/02/06 06:33:00;;;;;;;15.05;9.57;;;;;;;;;;5056700;28;20055;-54
2024/02/06 06:35:26;;;;;;;13.55;10.27;;;;;;;;;;5056267;28;20120;-53
2024/02/06 06:37:52;;;;;;;12.75;10.65;;;;;;;;;;5056833;28;20025;-54
2024/02/06 06:40:18;;;;;;;10.43;8.75;;;;;;;;;;5055823;28;20036;-53
2024/02/06 06:42:44;;;;;;;14.32;8.48;;;;;;;;;;5055803;28;20463;-56
2024/02/06 06:45:10;;;;;;;18.15;9.35;;;;;;;;;;5056938;28;20108;-56
2024/02/06 06:47:36;;;;;;;13.50;9.32;;;;;;;;;;5056003;28;20064;-57
2024/02/06 06:50:02;;;;;;;9.93;7.55;;;;;;;;;;5056820;28;20056;-54
2024/02/06 06:52:32;;;;;;;10.38;8.65;;;;;;;;;;5056681;28;20032;-56
2024/02/06 06:54:58;;;;;;;12.75;9.10;;;;;;;;;;5055863;28;20040;-57
2024/02/06 06:57:24;;;;;;;13.98;9.18;;;;;;;;;;5056607;28;20045;-57
2024/02/06 06:59:49;;;;;;;11.07;8.63;;;;;;;;;;5056312;28;20048;-54
2024/02/06 07:02:17;;;;;;;11.68;8.18;;;;;;;;;;5055192;28;20108;-54
2024/02/06 07:04:43;;;;;;;13.73;9.32;;;;;;;;;;5055329;28;20025;-55
2024/02/06 07:07:09;;;;;;;9.95;8.07;;;;;;;;;;5055357;28;20077;-55
2024/02/06 07:09:35;;;;;;;11.15;8.45;;;;;;;;;;5056418;28;20025;-55
2024/02/06 07:12:01;;;;;;;11.00;7.72;;;;;;;;;;5055699;28;20514;-57
2024/02/06 07:14:27;;;;;;;11.23;8.63;;;;;;;;;;5055079;28;20021;-53
2024/02/06 07:16:53;;;;;;;10.25;7.85;;;;;;;;;;5055958;28;20107;-54
2024/02/06 07:19:20;;;;;;;12.93;8.40;;;;;;;;;;5055641;28;20029;-57
2024/02/06 07:21:55;;;;;;;13.13;8.10;;;;;;;;;;5055378;28;20052;-57
2024/02/06 07:24:23;;;;;;;12.30;8.07;;;;;;;;;;5055512;28;20408;-57
2024/02/06 07:26:49;;;;;;;16.70;8.05;;;;;;;;;;5055883;28;20037;-58
2024/02/06 07:29:15;;;;;;;10.32;6.50;;;;;;;;;;5056190;28;20444;-56
2024/02/06 07:31:41;;;;;;;11.10;8.32;;;;;;;;;;5055577;28;20021;-57
2024/02/06 07:34:07;;;;;;;9.75;6.63;;;;;;;;;;5055009;28;20033;-55
2024/02/06 07:36:33;;;;;;;9.57;6.95;;;;;;;;;;5055762;28;20028;-54
2024/02/06 07:38:59;;;;;;;7.55;5.65;;;;;;;;;;5055776;28;20021;-57
2024/02/06 07:41:25;;;;;;;8.98;5.93;;;;;;;;;;5055681;28;20043;-55
2024/02/06 07:43:51;;;;;;;7.03;5.72;;;;;;;;;;5055055;28;20033;-56
2024/02/06 07:46:18;;;;;;;6.60;5.18;;;;;;;;;;5054734;28;20482;-55
2024/02/06 07:48:44;;;;;;;8.88;6.32;;;;;;;;;;5055003;28;20033;-56
2024/02/06 07:51:11;;;;;;;6.88;5.10;;;;;;;;;;5055442;28;20108;-56
2024/02/06 07:53:37;;;;;;;10.05;6.68;;;;;;;;;;5055377;28;20363;-54
2024/02/06 07:56:04;;;;;;;7.07;5.53;;;;;;;;;;5054909;28;20123;-56
2024/02/06 07:58:30;;;;;;;9.82;4.88;;;;;;;;;;5054695;28;20041;-57
2024/02/06 08:00:56;;;;;;;6.82;5.22;;;;;;;;;;5054595;28;20489;-58
2024/02/06 08:03:22;;;;;;;8.82;5.53;;;;;;;;;;5054521;28;20025;-57
2024/02/06 08:05:48;;;;;;;7.40;5.30;;;;;;;;;;5055045;28;20036;-57
2024/02/06 08:08:14;;;;;;;7.80;5.00;;;;;;;;;;5055067;28;20131;-54
2024/02/06 08:10:40;;;;;;;7.47;5.00;;;;;;;;;;5054923;28;20477;-53
2024/02/06 08:13:06;;;;;;;7.45;5.85;;;;;;;;;;5054599;28;20051;-55
2024/02/06 08:15:32;;;;;;;9.45;4.72;;;;;;;;;;5054666;28;20024;-49
2024/02/06 08:17:59;;;;;;;7.18;4.72;;;;;;;;;;5054975;28;20363;-54
2024/02/06 08:20:25;;;;;;;7.40;4.20;;;;;;;;;;5054936;28;20040;-52
2024/02/06 08:22:51;;;;;;;8.25;5.13;;;;;;;;;;5054859;28;20029;-53
2024/02/06 08:25:18;;;;;;;8.32;5.20;;;;;;;;;;5055050;28;20116;-55
2024/02/06 08:27:44;;;;;;;5.32;4.28;;;;;;;;;;5055217;28;20029;-55
2024/02/06 08:30:10;;;;;;;5.80;4.22;;;;;;;;;;5054258;28;20029;-50
2024/02/06 08:32:36;;;;;;;5.18;3.75;;;;;;;;;;5054253;28;20025;-53
2024/02/06 08:35:02;;;;;;;6.88;4.18;;;;;;;;;;5054117;28;20356;-55
2024/02/06 08:37:28;;;;;;;7.65;4.22;;;;;;;;;;5053646;28;20033;-56
2024/02/06 08:39:54;;;;;;;7.20;4.68;;;;;;;;;;5054075;28;20029;-54
2024/02/06 08:42:20;;;;;;;7.07;3.80;;;;;;;;;;5054046;28;20082;-50
2024/02/06 08:44:46;;;;;;;6.93;3.80;;;;;;;;;;5054664;28;20021;-55
2024/02/06 08:47:13;;;;;;;5.78;3.83;;;;;;;;;;5054559;28;20032;-52
2024/02/06 08:49:39;;;;;;;12.02;4.50;;;;;;;;;;5054507;28;20029;-53
2024/02/06 08:52:05;;;;;;;5.45;3.95;;;;;;;;;;5054199;28;20370;-53
2024/02/06 08:54:31;;;;;;;5.07;4.15;;;;;;;;;;5053952;28;20044;-56
2024/02/06 08:56:57;;;;;;;6.65;4.20;;;;;;;;;;5054044;28;20095;-57
2024/02/06 08:59:24;;;;;;;6.18;3.78;;;;;;;;;;5054362;28;20367;-53
2024/02/06 09:01:49;;;;;;;6.07;4.57;;;;;;;;;;5053518;28;20479;-56
2024/02/06 09:04:15;;;;;;;5.78;3.72;;;;;;;;;;5053336;28;20090;-56
2024/02/06 09:06:41;;;;;;;5.65;4.05;;;;;;;;;;5054289;28;20033;-53
2024/02/06 09:09:09;;;;;;;7.05;3.63;;;;;;;;;;5053837;28;20033;-53
2024/02/06 09:11:34;;;;;;;5.78;3.50;;;;;;;;;;5053986;28;20067;-52
2024/02/06 09:14:00;;;;;;;5.90;3.80;;;;;;;;;;5054217;28;20390;-55
2024/02/06 09:16:27;;;;;;;5.13;3.05;;;;;;;;;;5054083;28;20025;-57
2024/02/06 09:18:53;;;;;;;7.43;3.15;;;;;;;;;;5053654;28;20086;-56
2024/02/06 09:21:20;;;;;;;8.80;3.42;;;;;;;;;;5054186;28;20031;-56
2024/02/06 09:23:46;;;;;;;5.95;3.25;;;;;;;;;;5053316;28;20029;-56
2024/02/06 09:26:12;;;;;;;5.97;3.63;;;;;;;;;;5053532;28;20021;-54
2024/02/06 09:28:39;;;;;;;3.95;2.83;;;;;;;;;;5053602;28;20060;-55
2024/02/06 09:31:08;;;;;;;7.10;3.53;;;;;;;;;;5053661;28;20029;-57
2024/02/06 09:33:34;;;;;;;6.20;3.58;;;;;;;;;;5053265;28;20052;-56
2024/02/06 09:36:02;;;;;;;8.90;3.67;;;;;;;;;;5053774;28;20025;-55
2024/02/06 09:38:28;;;;;;;7.85;3.78;;;;;;;;;;5053663;28;20467;-57
2024/02/06 09:40:54;;;;;;;4.45;3.17;;;;;;;;;;5053911;28;20017;-57
2024/02/06 09:43:21;;;;;;;5.00;3.15;;;;;;;;;;5053441;28;20347;-56
2024/02/06 09:45:47;;;;;;;4.35;3.03;;;;;;;;;;5053065;28;20332;-55
2024/02/06 09:48:13;;;;;;;4.07;2.58;;;;;;;;;;5053762;28;20029;-55
2024/02/06 09:50:45;;;;;;;7.22;3.22;;;;;;;;;;5053388;28;20032;-52
2024/02/06 09:53:11;;;;;;;6.18;3.78;;;;;;;;;;5053980;28;20340;-51
2024/02/06 09:55:45;;;;;;;6.80;2.95;;;;;;;;;;5053552;28;20114;-53
2024/02/06 09:58:11;;;;;;;5.65;2.78;;;;;;;;;;5053724;28;20137;-52
2024/02/06 10:00:39;;;;;;;4.00;3.15;;;;;;;;;;5053239;28;20029;-55
2024/02/06 10:03:09;;;;;;;6.75;2.40;;;;;;;;;;5053287;28;20406;-56
2024/02/06 10:05:41;;;;;;;4.30;2.95;;;;;;;;;;5053755;28;20021;-55
2024/02/06 10:08:11;;;;;;;3.28;2.28;;;;;;;;;;5053828;28;20475;-54
2024/02/06 10:10:37;;;;;;;3.25;2.00;;;;;;;;;;5052893;28;20025;-56
2024/02/06 10:13:03;;;;;;;3.25;2.15;;;;;;;;;;5053924;28;20035;-54
2024/02/06 10:15:30;;;;;;;3.42;2.10;;;;;;;;;;5052984;28;20037;-55
2024/02/06 10:17:56;;;;;;;3.83;2.15;;;;;;;;;;5056669;28;20041;-55
2024/02/06 10:20:22;;;;;;;4.13;2.38;;;;;;;;;;5056993;28;20104;-56
2024/02/06 10:22:50;;;;;;;5.35;1.65;;;;;;;;;;5056940;28;20521;-55
2024/02/06 10:25:17;;;;;;;3.70;1.92;;;;;;;;;;5056648;28;20036;-52
2024/02/06 10:27:43;;;;;;;3.17;2.03;;;;;;;;;;5056916;28;20443;-56
2024/02/06 10:30:12;;;;;;;3.88;2.33;;;;;;;;;;5056566;28;20029;-55
2024/02/06 10:32:38;;;;;;;3.53;1.88;;;;;;;;;;5057327;28;20025;-55
2024/02/06 10:35:08;;;;;;;4.10;1.90;;;;;;;;;;5056425;28;20071;-55
2024/02/06 10:37:38;;;;;;;2.38;1.38;;;;;;;;;;5057093;28;20124;-56
2024/02/06 10:40:07;;;;;;;3.37;1.70;;;;;;;;;;5056476;28;20072;-56
2024/02/06 10:42:34;;;;;;;2.03;1.10;;;;;;;;;;5056296;28;20520;-51
2024/02/06 10:45:00;;;;;;;8.77;1.88;;;;;;;;;;5056283;28;20021;-55
2024/02/06 10:47:26;;;;;;;2.13;1.33;;;;;;;;;;5056179;28;20061;-55
2024/02/06 10:50:05;;;;;;;3.17;1.85;;;;;;;;;;5056268;28;20079;-56
2024/02/06 10:52:31;;;;;;;3.90;1.30;;;;;;;;;;5056176;28;20025;-55
2024/02/06 10:54:58;;;;;;;5.60;1.95;;;;;;;;;;5056045;28;20029;-56
2024/02/06 10:57:27;;;;;;;4.43;1.38;;;;;;;;;;5056062;28;20071;-55
2024/02/06 11:00:15;;;;;;;2.60;1.88;;;;;;;;;;5055957;28;20024;-56
2024/02/06 11:02:43;;;;;;;4.35;1.30;;;;;;;;;;5056858;28;20399;-52
2024/02/06 11:05:11;;;;;;;7.00;4.38;;;;;;;;;;5056677;28;20040;-54
2024/02/06 11:07:59;;;;;;;2.85;1.42;;;;;;;;;;5055753;28;20033;-57
2024/02/06 11:10:34;;;;;;;4.65;1.38;;;;;;;;;;5055942;28;20083;-53
2024/02/06 11:13:03;;;;;;;1.48;0.70;;;;;;;;;;5055949;28;20029;-57
2024/02/06 11:15:29;;;;;;;2.47;1.00;;;;;;;;;;5056457;28;20082;-54
2024/02/06 11:17:55;;;;;;;4.30;1.20;;;;;;;;;;5055613;28;20087;-56
2024/02/06 11:20:25;;;;;;;2.13;1.08;;;;;;;;;;5055946;28;20029;-55
2024/02/06 11:22:53;;;;;;;2.10;1.05;;;;;;;;;;5055907;28;20043;-55
2024/02/06 11:25:20;;;;;;;3.80;0.73;;;;;;;;;;5055501;28;20029;-56
2024/02/06 11:27:46;;;;;;;1.58;0.93;;;;;;;;;;5055744;28;20129;-56
2024/02/06 11:30:13;;;;;;;2.10;1.00;;;;;;;;;;5055675;28;20047;-57
2024/02/06 11:32:39;;;;;;;4.95;0.93;;;;;;;;;;5055126;28;20044;-55
2024/02/06 11:35:05;;;;;;;2.72;0.98;;;;;;;;;;5055352;28;20536;-56
2024/02/06 11:37:31;;;;;;;2.88;1.20;;;;;;;;;;5055494;28;20374;-57
2024/02/06 11:40:07;;;;;;;2.55;0.88;;;;;;;;;;5055778;28;20136;-56
2024/02/06 11:42:34;;;;;;;3.65;0.80;;;;;;;;;;5055815;28;20021;-57
2024/02/06 11:45:10;;;;;;;2.45;1.33;;;;;;;;;;5055123;28;20442;-53
2024/02/06 11:47:38;;;;;;;4.50;1.17;;;;;;;;;;5055136;28;20033;-57
2024/02/06 11:50:08;;;;;;;4.22;1.35;;;;;;;;;;5055052;28;20029;-56
2024/02/06 11:52:33;;;;;;;1.93;0.93;;;;;;;;;;5054942;28;20052;-56
2024/02/06 11:54:59;;;;;;;1.55;0.77;;;;;;;;;;5055253;28;20029;-56
2024/02/06 11:57:26;;;;;;;5.05;1.25;;;;;;;;;;5055395;28;20452;-57
2024/02/06 11:59:52;;;;;;;4.07;1.35;;;;;;;;;;5055363;28;20021;-56
2024/02/06 12:02:17;;;;;;;1.70;0.90;;;;;;;;;;5054471;28;20029;-56
2024/02/06 12:04:43;;;;;;;7.00;1.00;;;;;;;;;;5054761;28;20108;-57
2024/02/06 12:07:09;;;;;;;3.85;1.05;;;;;;;;;;5054578;28;20057;-53
2024/02/06 12:09:40;;;;;;;3.17;1.30;;;;;;;;;;5055282;28;20439;-55
2024/02/06 12:12:06;;;;;;;1.88;0.90;;;;;;;;;;5055111;28;20055;-54
2024/02/06 12:14:32;;;;;;;2.72;0.90;;;;;;;;;;5054857;28;20102;-56
2024/02/06 12:16:58;;;;;;;4.97;1.15;;;;;;;;;;5054391;28;20037;-57
2024/02/06 12:19:25;;;;;;;6.22;1.58;;;;;;;;;;5054813;28;20440;-56
2024/02/06 12:22:04;;;;;;;6.40;1.08;;;;;;;;;;5054373;28;20025;-56
2024/02/06 12:24:30;;;;;;;1.35;0.57;;;;;;;;;;5054902;28;20021;-54
2024/02/06 12:27:04;;;;;;;6.63;1.02;;;;;;;;;;5055106;28;20035;-56
2024/02/06 12:29:35;;;;;;;2.17;1.33;;;;;;;;;;5054335;28;20036;-57
2024/02/06 12:32:03;;;;;;;1.27;0.85;;;;;;;;;;5055168;28;20029;-54
2024/02/06 12:34:29;;;;;;;3.55;1.30;;;;;;;;;;5054191;28;20111;-53
2024/02/06 12:36:56;;;;;;;1.73;0.73;;;;;;;;;;5054307;28;20521;-57
2024/02/06 12:39:22;;;;;;;6.72;1.55;;;;;;;;;;5054321;28;20088;-54
2024/02/06 12:41:58;;;;;;;5.03;1.17;;;;;;;;;;5054381;28;20025;-56
2024/02/06 12:44:25;;;;;;;3.38;1.20;;;;;;;;;;5054409;28;20025;-54
2024/02/06 12:46:51;;;;;;;3.17;1.02;;;;;;;;;;5055075;28;20029;-56
2024/02/06 12:49:17;;;;;;;4.13;1.30;;;;;;;;;;5054054;28;20029;-55
2024/02/06 12:51:44;;;;;;;2.47;1.05;;;;;;;;;;5053879;28;20056;-53
2024/02/06 12:54:10;;;;;;;5.13;1.13;;;;;;;;;;5054768;28;20032;-56
2024/02/06 12:56:36;;;;;;;2.55;0.95;;;;;;;;;;5054101;28;20049;-54
2024/02/06 12:59:03;;;;;;;4.05;1.00;;;;;;;;;;5053853;28;20044;-53
2024/02/06 13:01:29;;;;;;;3.00;1.20;;;;;;;;;;5053523;28;20037;-56
2024/02/06 13:03:58;;;;;;;3.33;0.93;;;;;;;;;;5054329;28;20035;-56
2024/02/06 13:06:31;;;;;;;2.22;0.95;;;;;;;;;;5054078;28;20021;-56
2024/02/06 13:08:57;;;;;;;3.33;1.27;;;;;;;;;;5054110;28;20033;-53
2024/02/06 13:11:25;;;;;;;2.45;1.15;;;;;;;;;;5053668;28;20140;-56
2024/02/06 13:13:55;;;;;;;6.78;1.40;;;;;;;;;;5053708;28;20029;-56
2024/02/06 13:16:22;;;;;;;2.17;1.13;;;;;;;;;;5053614;28;20119;-55
2024/02/06 13:19:00;;;;;;;3.05;0.75;;;;;;;;;;5053575;28;20398;-56
2024/02/06 13:21:26;;;;;;;4.28;1.08;;;;;;;;;;5054157;28;20079;-56
2024/02/06 13:23:52;;;;;;;2.20;1.05;;;;;;;;;;5053574;28;20115;-56
2024/02/06 13:26:22;;;;;;;1.55;0.82;;;;;;;;;;5053740;28;20033;-57
2024/02/06 13:28:56;;;;;;;3.40;1.48;;;;;;;;;;5054312;28;20033;-57
2024/02/06 13:31:22;;;;;;;1.63;0.90;;;;;;;;;;5054062;28;20025;-57
2024/02/06 13:33:48;;;;;;;2.67;0.85;;;;;;;;;;5053557;28;20463;-55
2024/02/06 13:36:14;;;;;;;6.50;1.20;;;;;;;;;;5054079;28;20028;-56
2024/02/06 13:38:40;;;;;;;4.50;1.05;;;;;;;;;;5053699;28;20374;-57
2024/02/06 13:41:07;;;;;;;3.40;0.93;;;;;;;;;;5054023;28;20033;-57
2024/02/06 13:43:33;;;;;;;1.98;0.98;;;;;;;;;;5054246;28;20032;-56
2024/02/06 13:45:59;;;;;;;3.75;1.00;;;;;;;;;;5053119;28;20020;-57
2024/02/06 13:48:24;;;;;;;1.55;0.77;;;;;;;;;;5054177;28;20092;-57
2024/02/06 13:50:50;;;;;;;2.22;0.93;;;;;;;;;;5055424;28;20028;-57
2024/02/06 13:53:16;;;;;;;2.20;1.00;;;;;;;;;;5057185;28;20079;-55
2024/02/06 13:55:43;;;;;;;6.07;1.13;;;;;;;;;;5057313;28;20471;-56
2024/02/06 13:58:09;;;;;;;3.42;1.27;;;;;;;;;;5057459;28;20033;-57
2024/02/06 14:00:35;;;;;;;4.03;0.85;;;;;;;;;;5057110;28;20466;-57
2024/02/06 14:03:01;;;;;;;1.77;1.08;;;;;;;;;;5056869;28;20347;-56
2024/02/06 14:05:27;;;;;;;3.15;1.20;;;;;;;;;;5056648;28;20036;-56
2024/02/06 14:07:53;;;;;;;2.47;1.17;;;;;;;;;;5057871;28;20134;-56
2024/02/06 14:10:19;;;;;;;3.47;1.30;;;;;;;;;;5057127;28;20025;-54
2024/02/06 14:12:45;;;;;;;2.17;1.30;;;;;;;;;;5056989;28;20374;-54
2024/02/06 14:15:11;;;;;;;2.85;0.63;;;;;;;;;;5056812;28;20029;-55
2024/02/06 14:17:37;;;;;;;4.57;1.40;;;;;;;;;;5056594;28;20068;-56
2024/02/06 14:20:03;;;;;;;1.45;0.70;;;;;;;;;;5057158;28;20025;-55
2024/02/06 14:22:29;;;;;;;2.45;0.80;;;;;;;;;;5056591;28;20029;-55
2024/02/06 14:24:55;;;;;;;5.30;1.40;;;;;;;;;;5056583;28;20021;-54
2024/02/06 14:27:23;;;;;;;3.28;1.55;;;;;;;;;;5056936;28;20048;-52
2024/02/06 14:29:49;;;;;;;2.03;0.80;;;;;;;;;;5056966;28;20029;-55